Time;durP1;ratioP1;P1;durP2;ratioP2;P2;SDS_P1;SDS_P2;PMS_P1;PMS_P2;Temp;Humidity;BMP_temperature;BMP_pressure;BME280_temperature;BME280_humidity;BME280_pressure;Samples;Min_cycle;Max_cycle;Signal;HPM_P1;HPM_P2
2022/11/09 00:00:46;;;;;;;2.90;1.90;;;15.00;79.60;;;;;;5040549;28;20436;-77
2022/11/09 00:03:14;;;;;;;1.90;1.42;;;15.00;79.50;;;;;;5044580;28;20413;-75
2022/11/09 00:05:41;;;;;;;3.27;1.70;;;15.00;79.70;;;;;;5043341;28;20432;-76
2022/11/09 00:08:09;;;;;;;2.45;1.60;;;15.00;79.70;;;;;;5036339;28;20437;-76
2022/11/09 00:10:36;;;;;;;2.45;1.40;;;15.00;79.80;;;;;;5035544;28;20489;-76
2022/11/09 00:13:03;;;;;;;3.42;1.70;;;15.00;79.80;;;;;;5043982;28;20506;-76
2022/11/09 00:15:30;;;;;;;1.90;1.50;;;15.00;80.00;;;;;;5038987;28;20444;-76
2022/11/09 00:18:00;;;;;;;2.00;1.40;;;14.90;80.10;;;;;;5035724;28;20437;-76
2022/11/09 00:20:28;;;;;;;2.30;1.70;;;14.90;80.20;;;;;;5042569;28;20443;-76
2022/11/09 00:22:55;;;;;;;1.90;1.50;;;14.90;80.50;;;;;;5043936;28;20424;-76
2022/11/09 00:25:22;;;;;;;1.60;1.30;;;14.80;80.90;;;;;;5042463;28;20577;-76
2022/11/09 00:27:49;;;;;;;2.40;1.77;;;14.80;81.30;;;;;;5036940;28;20438;-76
2022/11/09 00:30:16;;;;;;;1.70;1.33;;;14.70;81.50;;;;;;5030904;28;20435;-76
2022/11/09 00:32:43;;;;;;;2.08;1.77;;;14.70;81.80;;;;;;5042876;28;20417;-76
2022/11/09 00:35:10;;;;;;;1.80;1.48;;;14.60;82.00;;;;;;5033257;28;20433;-76
2022/11/09 00:37:38;;;;;;;1.38;1.27;;;14.50;82.40;;;;;;5036154;28;20530;-76
2022/11/09 00:40:06;;;;;;;2.50;1.65;;;14.50;82.90;;;;;;5037053;28;20432;-76
2022/11/09 00:42:32;;;;;;;3.22;1.70;;;14.50;82.80;;;;;;5034727;28;20415;-75
2022/11/09 00:44:59;;;;;;;2.55;1.60;;;14.50;83.10;;;;;;5029811;28;20520;-76
2022/11/09 00:47:26;;;;;;;1.88;1.60;;;14.40;83.20;;;;;;5039019;28;20464;-76
2022/11/09 00:49:53;;;;;;;2.13;1.83;;;14.40;83.60;;;;;;5041575;28;20437;-76
2022/11/09 00:52:19;;;;;;;1.90;1.50;;;14.40;83.70;;;;;;5044140;28;21418;-76
2022/11/09 00:54:47;;;;;;;3.50;1.70;;;14.40;83.70;;;;;;5053608;28;20440;-76
2022/11/09 00:57:14;;;;;;;1.80;1.50;;;14.40;83.90;;;;;;5040041;28;20437;-76
2022/11/09 00:59:41;;;;;;;2.95;1.70;;;14.40;83.80;;;;;;5041118;28;20433;-75
2022/11/09 01:02:08;;;;;;;4.25;2.00;;;14.40;83.80;;;;;;5033912;28;20437;-75
2022/11/09 01:04:34;;;;;;;2.40;1.90;;;14.40;83.40;;;;;;5042517;28;20440;-76
2022/11/09 01:07:01;;;;;;;2.38;1.70;;;14.40;82.40;;;;;;5040498;28;20432;-76
2022/11/09 01:09:28;;;;;;;2.90;2.25;;;14.40;82.30;;;;;;5035363;28;20432;-76
2022/11/09 01:11:56;;;;;;;3.08;1.80;;;14.40;82.10;;;;;;5041306;28;20433;-76
2022/11/09 01:14:23;;;;;;;2.37;2.10;;;14.50;81.90;;;;;;5040475;28;20496;-76
2022/11/09 01:16:50;;;;;;;2.47;1.80;;;14.50;81.40;;;;;;5036569;28;20898;-75
2022/11/09 01:19:16;;;;;;;2.93;1.40;;;14.50;80.90;;;;;;5043920;28;20432;-76
2022/11/09 01:21:43;;;;;;;1.90;1.50;;;14.60;80.10;;;;;;5039214;28;20443;-74
2022/11/09 01:24:10;;;;;;;2.40;1.40;;;14.70;79.00;;;;;;5047294;28;20417;-77
2022/11/09 01:26:37;;;;;;;2.45;1.30;;;14.70;78.70;;;;;;5035535;28;20493;-77
2022/11/09 01:29:05;;;;;;;2.28;1.38;;;14.70;78.40;;;;;;5034346;28;20452;-77
2022/11/09 01:31:31;;;;;;;1.30;1.00;;;14.70;78.40;;;;;;5041450;28;20489;-78
2022/11/09 01:33:58;;;;;;;2.60;1.38;;;14.80;77.90;;;;;;5041555;28;20931;-77
2022/11/09 01:36:25;;;;;;;3.33;1.52;;;14.80;77.50;;;;;;5043048;28;21100;-78
2022/11/09 01:38:52;;;;;;;2.80;1.40;;;14.90;77.40;;;;;;5043584;28;20421;-78
2022/11/09 01:41:21;;;;;;;1.58;1.13;;;14.90;77.20;;;;;;5039812;28;20453;-78
2022/11/09 01:44:06;;;;;;;2.20;1.40;;;14.80;77.40;;;;;;5042108;28;20437;-76
2022/11/09 01:46:37;;;;;;;1.95;1.35;;;14.80;77.50;;;;;;5037592;28;20767;-78
2022/11/09 01:49:11;;;;;;;2.00;1.80;;;14.80;77.80;;;;;;5044733;28;20429;-77
2022/11/09 01:51:42;;;;;;;1.67;1.52;;;14.70;78.20;;;;;;5047160;28;20425;-76
2022/11/09 01:54:14;;;;;;;4.10;1.60;;;14.70;78.50;;;;;;5049616;28;20433;-76
2022/11/09 01:56:41;;;;;;;2.20;1.30;;;14.80;78.60;;;;;;5042914;28;20430;-78
2022/11/09 01:59:14;;;;;;;2.15;1.40;;;14.80;78.60;;;;;;5048299;28;20776;-77
2022/11/09 02:01:43;;;;;;;2.10;1.60;;;14.80;78.70;;;;;;5042641;28;20517;-77
2022/11/09 02:04:12;;;;;;;1.48;1.25;;;14.70;78.60;;;;;;5042724;28;20435;-77
2022/11/09 02:06:40;;;;;;;1.77;1.40;;;14.70;78.70;;;;;;5044022;28;20429;-76
2022/11/09 02:09:12;;;;;;;2.40;1.37;;;14.70;78.50;;;;;;5050835;28;21334;-79
2022/11/09 02:11:40;;;;;;;2.20;1.55;;;14.70;78.90;;;;;;5049987;28;20465;-77
2022/11/09 02:14:09;;;;;;;2.83;1.58;;;14.70;78.80;;;;;;5040928;28;20568;-77
2022/11/09 02:16:37;;;;;;;1.88;1.60;;;14.70;79.10;;;;;;5044852;28;20430;-77
2022/11/09 02:19:04;;;;;;;2.20;1.40;;;14.70;79.40;;;;;;5044652;28;20425;-77
2022/11/09 02:21:33;;;;;;;2.47;1.50;;;14.60;79.70;;;;;;5047465;28;20731;-76
2022/11/09 02:24:00;;;;;;;2.25;1.40;;;14.60;79.90;;;;;;5047195;28;20437;-76
2022/11/09 02:26:30;;;;;;;2.42;1.50;;;14.60;80.20;;;;;;5037013;28;20908;-78
2022/11/09 02:28:58;;;;;;;2.20;1.60;;;14.60;79.90;;;;;;5051560;28;20425;-78
2022/11/09 02:31:30;;;;;;;3.75;1.73;;;14.60;80.30;;;;;;5056383;28;20475;-78
2022/11/09 02:34:03;;;;;;;2.33;1.75;;;14.50;80.80;;;;;;5057068;28;20870;-78
2022/11/09 02:36:31;;;;;;;2.70;1.65;;;14.50;80.90;;;;;;5042487;28;20535;-77
2022/11/09 02:38:58;;;;;;;2.70;1.92;;;14.50;80.90;;;;;;5038117;28;20938;-77
2022/11/09 02:41:26;;;;;;;2.78;2.05;;;14.50;81.10;;;;;;5047014;28;20417;-76
2022/11/09 02:43:54;;;;;;;3.50;1.70;;;14.60;80.90;;;;;;5043667;28;20474;-76
2022/11/09 02:46:24;;;;;;;2.15;2.00;;;14.60;81.00;;;;;;5034825;28;20446;-76
2022/11/09 02:48:50;;;;;;;4.90;2.15;;;14.50;81.30;;;;;;5042657;28;20935;-76
2022/11/09 02:51:17;;;;;;;2.00;1.80;;;14.50;81.20;;;;;;5037555;28;20998;-76
2022/11/09 02:53:45;;;;;;;2.17;1.80;;;14.50;81.30;;;;;;5044253;28;20436;-76
2022/11/09 02:56:12;;;;;;;2.20;1.80;;;14.50;80.90;;;;;;5046289;28;20425;-76
2022/11/09 02:58:39;;;;;;;2.95;1.80;;;14.50;81.00;;;;;;5046570;28;20513;-76
2022/11/09 03:01:06;;;;;;;2.70;1.70;;;14.50;80.70;;;;;;5044462;28;20524;-77
2022/11/09 03:03:33;;;;;;;3.97;1.95;;;14.50;80.40;;;;;;5035842;28;20432;-75
2022/11/09 03:05:59;;;;;;;2.53;1.67;;;14.50;80.20;;;;;;5042044;28;20424;-76
2022/11/09 03:08:26;;;;;;;2.60;1.98;;;14.50;80.50;;;;;;5045911;28;20429;-74
2022/11/09 03:10:54;;;;;;;2.88;2.00;;;14.50;80.70;;;;;;5041994;28;20505;-76
2022/11/09 03:13:21;;;;;;;2.10;1.80;;;14.50;81.30;;;;;;5045675;28;20417;-74
2022/11/09 03:15:48;;;;;;;2.90;1.80;;;14.50;81.60;;;;;;5043745;28;20432;-74
2022/11/09 03:18:15;;;;;;;2.85;1.70;;;14.40;81.90;;;;;;5038085;28;20441;-75
2022/11/09 03:20:41;;;;;;;4.00;2.00;;;14.50;82.10;;;;;;5037275;28;20447;-74
2022/11/09 03:23:09;;;;;;;2.50;1.73;;;14.40;82.30;;;;;;5032136;28;20432;-77
2022/11/09 03:25:36;;;;;;;2.53;1.60;;;14.40;82.70;;;;;;5045093;28;20417;-75
2022/11/09 03:28:06;;;;;;;3.03;1.60;;;14.40;82.80;;;;;;5044493;28;20429;-75
2022/11/09 03:30:34;;;;;;;1.80;1.30;;;14.40;82.80;;;;;;5042194;28;20429;-75
2022/11/09 03:33:02;;;;;;;3.10;1.60;;;14.40;82.70;;;;;;5034181;28;20436;-75
2022/11/09 03:35:28;;;;;;;3.38;1.40;;;14.40;82.80;;;;;;5039740;28;20443;-75
2022/11/09 03:37:55;;;;;;;1.98;1.50;;;14.40;83.00;;;;;;5046588;28;20884;-75
2022/11/09 03:40:22;;;;;;;2.42;1.65;;;14.40;83.00;;;;;;5049825;28;20440;-75
2022/11/09 03:42:49;;;;;;;1.90;1.40;;;14.40;82.90;;;;;;5044405;28;20433;-75
2022/11/09 03:45:17;;;;;;;2.15;1.50;;;14.50;83.00;;;;;;5035905;28;20443;-75
2022/11/09 03:47:46;;;;;;;3.22;1.70;;;14.50;82.80;;;;;;5037952;28;20505;-75
2022/11/09 03:50:14;;;;;;;3.00;2.00;;;14.50;82.70;;;;;;5044704;28;20436;-74
2022/11/09 03:52:44;;;;;;;2.65;1.58;;;14.60;82.40;;;;;;5044315;28;20451;-75
2022/11/09 03:55:11;;;;;;;2.83;1.30;;;14.50;82.50;;;;;;5045141;28;20469;-74
2022/11/09 03:57:37;;;;;;;3.00;1.40;;;14.50;82.60;;;;;;5044310;28;20448;-75
2022/11/09 04:00:05;;;;;;;2.10;1.30;;;14.50;82.60;;;;;;5035689;28;20509;-75
2022/11/09 04:02:34;;;;;;;2.03;1.52;;;14.50;82.10;;;;;;5035022;28;20432;-75
2022/11/09 04:05:00;;;;;;;3.00;1.50;;;14.50;82.10;;;;;;5044783;28;20444;-75
2022/11/09 04:07:27;;;;;;;2.45;1.58;;;14.60;81.70;;;;;;5040669;28;20439;-75
2022/11/09 04:09:54;;;;;;;3.10;1.60;;;14.60;81.30;;;;;;5041236;28;20433;-75
2022/11/09 04:12:21;;;;;;;2.30;1.70;;;14.60;81.50;;;;;;5043822;28;20413;-74
2022/11/09 04:14:47;;;;;;;2.50;1.33;;;14.60;81.60;;;;;;5042972;28;20436;-76
2022/11/09 04:17:14;;;;;;;2.58;1.48;;;14.60;81.40;;;;;;5037345;28;21247;-75
2022/11/09 04:19:42;;;;;;;2.88;1.60;;;14.60;81.10;;;;;;5044205;28;20409;-75
2022/11/09 04:22:09;;;;;;;2.63;1.40;;;14.60;81.40;;;;;;5043791;28;20421;-74
2022/11/09 04:24:36;;;;;;;2.20;1.40;;;14.60;80.90;;;;;;5043865;28;20413;-75
2022/11/09 04:27:04;;;;;;;3.03;1.50;;;14.60;80.80;;;;;;5043518;28;20437;-76
2022/11/09 04:29:30;;;;;;;2.80;1.87;;;14.70;80.10;;;;;;5038022;28;20427;-75
2022/11/09 04:31:57;;;;;;;3.93;1.60;;;14.70;79.90;;;;;;5042002;28;20463;-75
2022/11/09 04:34:24;;;;;;;4.80;1.90;;;14.70;79.50;;;;;;5044102;28;20450;-74
2022/11/09 04:36:52;;;;;;;2.30;1.50;;;14.80;79.00;;;;;;5037868;28;20421;-75
2022/11/09 04:39:19;;;;;;;3.53;1.70;;;14.80;78.90;;;;;;5043839;28;20432;-75
2022/11/09 04:41:45;;;;;;;4.20;2.10;;;14.80;79.00;;;;;;5043696;28;20428;-74
2022/11/09 04:44:12;;;;;;;2.75;1.50;;;14.70;79.10;;;;;;5044399;28;20443;-74
2022/11/09 04:46:39;;;;;;;3.70;2.03;;;14.80;79.50;;;;;;5041507;28;20421;-74
2022/11/09 04:49:06;;;;;;;2.67;1.90;;;14.80;81.40;;;;;;5045674;28;20901;-74
2022/11/09 04:51:32;;;;;;;4.60;2.10;;;14.70;83.50;;;;;;5045987;28;20433;-75
2022/11/09 04:54:01;;;;;;;2.72;1.70;;;14.60;84.40;;;;;;5043562;28;20918;-75
2022/11/09 04:56:27;;;;;;;3.20;1.80;;;14.40;86.20;;;;;;5043351;28;20437;-74
2022/11/09 04:58:54;;;;;;;2.92;2.30;;;14.30;87.00;;;;;;5034271;28;20429;-74
2022/11/09 05:01:22;;;;;;;4.70;2.40;;;14.20;89.30;;;;;;5032494;28;20773;-73
2022/11/09 05:03:49;;;;;;;6.10;2.58;;;14.10;90.50;;;;;;5041636;28;20509;-73
2022/11/09 05:06:33;;;;;;;2.50;1.80;;;13.90;90.80;;;;;;5043934;28;20796;-73
2022/11/09 05:09:04;;;;;;;2.85;1.67;;;13.70;91.80;;;;;;5041104;28;20448;-74
2022/11/09 05:11:31;;;;;;;3.03;1.88;;;13.60;92.20;;;;;;5035950;28;20458;-73
2022/11/09 05:13:58;;;;;;;2.00;1.40;;;13.50;92.80;;;;;;5032983;28;20443;-76
2022/11/09 05:16:25;;;;;;;4.20;1.80;;;13.40;92.80;;;;;;5033558;28;20744;-75
2022/11/09 05:18:52;;;;;;;3.90;2.15;;;13.40;92.90;;;;;;5040150;28;20576;-72
2022/11/09 05:21:19;;;;;;;3.25;2.00;;;13.30;93.80;;;;;;5042209;28;20433;-75
2022/11/09 05:23:57;;;;;;;4.33;2.10;;;13.20;94.30;;;;;;5030147;28;20413;-74
2022/11/09 05:26:30;;;;;;;3.35;1.85;;;13.10;94.70;;;;;;5039924;28;20430;-75
2022/11/09 05:28:58;;;;;;;5.57;2.20;;;13.00;95.10;;;;;;5036066;28;20910;-74
2022/11/09 05:31:25;;;;;;;3.97;2.43;;;13.00;95.60;;;;;;5041909;28;20790;-73
2022/11/09 05:33:53;;;;;;;2.95;2.47;;;12.90;96.10;;;;;;5034520;28;20425;-74
2022/11/09 05:36:20;;;;;;;4.78;2.80;;;12.80;96.90;;;;;;5047636;28;20447;-74
2022/11/09 05:38:47;;;;;;;3.85;2.05;;;12.80;97.20;;;;;;5047131;28;20425;-74
2022/11/09 05:41:14;;;;;;;6.97;2.47;;;12.80;97.40;;;;;;5038386;28;20536;-75
2022/11/09 05:43:43;;;;;;;4.63;2.60;;;12.80;97.10;;;;;;5037250;28;21190;-75
2022/11/09 05:46:10;;;;;;;4.32;2.40;;;12.80;97.30;;;;;;5049313;28;20563;-75
2022/11/09 05:48:37;;;;;;;4.97;2.67;;;12.70;97.50;;;;;;5046407;28;20760;-75
2022/11/09 05:51:06;;;;;;;5.57;2.50;;;12.60;97.90;;;;;;5045428;28;20775;-75
2022/11/09 05:53:33;;;;;;;3.55;2.30;;;12.60;98.30;;;;;;5043218;28;20429;-75
2022/11/09 05:56:04;;;;;;;5.70;2.60;;;12.80;97.70;;;;;;5046277;28;20437;-75
2022/11/09 05:58:35;;;;;;;4.53;2.40;;;12.70;97.30;;;;;;5044132;28;20429;-76
2022/11/09 06:01:03;;;;;;;4.65;2.40;;;12.70;97.80;;;;;;5040277;28;20763;-76
2022/11/09 06:03:30;;;;;;;3.22;2.50;;;12.70;98.00;;;;;;5070109;22;20462;-72
2022/11/09 06:06:01;;;;;;;3.35;2.90;;;12.70;98.00;;;;;;5068780;28;20979;-72
2022/11/09 06:08:28;;;;;;;3.67;3.20;;;12.60;98.10;;;;;;5059290;28;20933;-72
2022/11/09 06:10:59;;;;;;;4.63;3.00;;;12.60;98.20;;;;;;5068659;28;20432;-73
2022/11/09 06:13:26;;;;;;;4.78;3.38;;;12.60;98.30;;;;;;5066059;28;20437;-71
2022/11/09 06:15:54;;;;;;;4.67;3.40;;;12.60;98.50;;;;;;5061654;28;20979;-70
2022/11/09 06:18:22;;;;;;;4.30;3.17;;;12.60;98.60;;;;;;5055213;28;20785;-71
2022/11/09 06:20:52;;;;;;;4.22;3.30;;;12.70;98.80;;;;;;5050568;28;20419;-71
2022/11/09 06:23:19;;;;;;;4.18;3.08;;;12.70;98.50;;;;;;5063145;28;20455;-71
2022/11/09 06:25:47;;;;;;;3.70;3.03;;;12.70;98.00;;;;;;5059041;28;20448;-71
2022/11/09 06:28:14;;;;;;;5.20;3.15;;;12.70;97.70;;;;;;5051861;28;20433;-71
2022/11/09 06:30:41;;;;;;;3.10;2.53;;;12.80;97.70;;;;;;5057043;28;20429;-72
2022/11/09 06:33:08;;;;;;;3.80;2.40;;;12.80;97.60;;;;;;5053838;28;20427;-72
2022/11/09 06:35:36;;;;;;;4.40;2.00;;;12.80;96.70;;;;;;5056358;28;20902;-72
2022/11/09 06:38:03;;;;;;;3.90;1.70;;;12.90;96.20;;;;;;5059723;28;20425;-73
2022/11/09 06:40:30;;;;;;;3.53;2.20;;;13.00;95.00;;;;;;5065031;28;20423;-72
2022/11/09 06:42:58;;;;;;;2.60;2.17;;;13.00;95.20;;;;;;5064085;28;20515;-72
2022/11/09 06:45:26;;;;;;;4.28;3.03;;;13.00;95.70;;;;;;5054784;28;20667;-72
2022/11/09 06:47:55;;;;;;;5.15;2.72;;;12.90;96.40;;;;;;5049892;28;20934;-72
2022/11/09 06:50:22;;;;;;;4.00;2.28;;;12.90;96.30;;;;;;5054075;28;20437;-72
2022/11/09 06:52:50;;;;;;;4.20;1.90;;;12.90;95.30;;;;;;5059918;28;20438;-72
2022/11/09 06:55:17;;;;;;;3.60;2.10;;;12.90;94.80;;;;;;5058851;28;20436;-70
2022/11/09 06:57:44;;;;;;;3.95;2.10;;;13.00;94.90;;;;;;5054223;28;20421;-71
2022/11/09 07:00:12;;;;;;;4.13;2.10;;;12.90;95.40;;;;;;5059640;28;20496;-69
2022/11/09 07:02:38;;;;;;;4.13;2.60;;;12.90;94.70;;;;;;5061657;28;20438;-71
2022/11/09 07:05:06;;;;;;;5.53;2.30;;;13.00;95.00;;;;;;5058268;28;20429;-71
2022/11/09 07:07:32;;;;;;;2.60;2.28;;;12.90;95.10;;;;;;5058100;28;20788;-70
2022/11/09 07:10:01;;;;;;;4.30;2.40;;;12.90;95.30;;;;;;5064797;28;20439;-72
2022/11/09 07:12:27;;;;;;;3.80;2.20;;;12.90;95.60;;;;;;5057887;28;20416;-72
2022/11/09 07:14:54;;;;;;;3.63;2.75;;;12.80;95.70;;;;;;5055469;28;20413;-72
2022/11/09 07:17:21;;;;;;;4.70;3.00;;;12.90;96.00;;;;;;5058151;28;20427;-72
2022/11/09 07:19:48;;;;;;;4.55;3.30;;;12.80;96.20;;;;;;5055544;28;20428;-70
2022/11/09 07:22:14;;;;;;;4.38;3.03;;;12.80;96.80;;;;;;5055813;28;20446;-70
2022/11/09 07:24:41;;;;;;;4.80;3.23;;;12.80;97.00;;;;;;5050086;28;20439;-71
2022/11/09 07:27:09;;;;;;;5.00;2.80;;;12.80;97.10;;;;;;5059560;28;20507;-71
2022/11/09 07:29:36;;;;;;;5.38;2.80;;;12.80;96.90;;;;;;5057899;28;20425;-71
2022/11/09 07:32:03;;;;;;;3.17;2.60;;;12.70;96.70;;;;;;5053850;28;20413;-71
2022/11/09 07:34:30;;;;;;;3.70;2.28;;;12.80;96.70;;;;;;5056518;28;20436;-70
2022/11/09 07:36:56;;;;;;;3.45;2.20;;;12.80;96.50;;;;;;5057527;28;20434;-71
2022/11/09 07:39:23;;;;;;;4.28;2.60;;;12.90;96.70;;;;;;5054002;28;20425;-71
2022/11/09 07:41:50;;;;;;;4.75;2.60;;;12.90;96.60;;;;;;5052673;28;20795;-71
2022/11/09 07:44:19;;;;;;;3.60;2.80;;;13.00;96.60;;;;;;5066880;28;20411;-70
2022/11/09 07:46:47;;;;;;;5.05;2.40;;;13.00;96.40;;;;;;5052601;28;20797;-70
2022/11/09 07:49:14;;;;;;;3.83;2.63;;;13.00;96.30;;;;;;5054670;28;20493;-70
2022/11/09 07:51:42;;;;;;;3.27;2.30;;;13.00;96.10;;;;;;5058615;28;20423;-70
2022/11/09 07:54:09;;;;;;;4.10;2.20;;;13.10;95.80;;;;;;5059298;28;20974;-69
2022/11/09 07:56:36;;;;;;;4.13;2.40;;;13.10;95.80;;;;;;5048807;28;20418;-70
2022/11/09 07:59:03;;;;;;;5.65;2.50;;;13.10;95.50;;;;;;5060436;28;20424;-71
2022/11/09 08:01:31;;;;;;;4.57;2.33;;;13.20;95.40;;;;;;5082216;28;20433;-68
2022/11/09 08:03:58;;;;;;;3.83;2.30;;;13.20;95.30;;;;;;5062108;28;20413;-71
2022/11/09 08:06:26;;;;;;;4.63;2.45;;;13.20;94.60;;;;;;5060425;28;20446;-70
2022/11/09 08:08:54;;;;;;;5.22;2.70;;;13.30;94.80;;;;;;5054508;28;20933;-70
2022/11/09 08:11:20;;;;;;;5.55;2.45;;;13.30;94.60;;;;;;5064768;28;20429;-69
2022/11/09 08:13:47;;;;;;;4.15;2.50;;;13.50;94.10;;;;;;5065153;28;20424;-70
2022/11/09 08:16:14;;;;;;;3.45;2.70;;;13.60;93.70;;;;;;5054588;28;20418;-69
2022/11/09 08:18:43;;;;;;;5.60;2.90;;;13.70;93.80;;;;;;5061325;28;20427;-69
2022/11/09 08:21:10;;;;;;;4.60;2.80;;;13.70;93.90;;;;;;5051580;28;20424;-69
2022/11/09 08:23:37;;;;;;;4.88;3.08;;;13.70;93.30;;;;;;5063077;28;20424;-69
2022/11/09 08:26:05;;;;;;;3.45;2.58;;;13.80;93.40;;;;;;5062283;28;20415;-69
2022/11/09 08:28:33;;;;;;;4.10;3.13;;;14.00;93.50;;;;;;5056848;28;20473;-69
2022/11/09 08:31:01;;;;;;;3.65;2.85;;;14.20;93.60;;;;;;5057918;28;20433;-69
2022/11/09 08:33:30;;;;;;;4.45;2.75;;;14.40;92.60;;;;;;5067217;28;20427;-69
2022/11/09 08:35:59;;;;;;;4.03;2.50;;;14.50;92.10;;;;;;5056281;28;20464;-70
2022/11/09 08:38:25;;;;;;;5.90;2.63;;;14.70;91.20;;;;;;5055727;28;20421;-69
2022/11/09 08:40:57;;;;;;;4.57;2.33;;;14.90;90.20;;;;;;5057993;28;20427;-72
2022/11/09 08:43:24;;;;;;;4.60;2.40;;;15.10;89.80;;;;;;5055653;28;20478;-71
2022/11/09 08:45:51;;;;;;;4.53;2.20;;;15.40;88.20;;;;;;5061609;28;20902;-69
2022/11/09 08:48:18;;;;;;;5.07;2.30;;;15.50;86.30;;;;;;5060081;28;20441;-71
2022/11/09 08:50:44;;;;;;;4.55;2.30;;;15.70;84.80;;;;;;5050549;28;20429;-71
2022/11/09 08:53:12;;;;;;;4.38;2.03;;;15.80;83.90;;;;;;5055079;28;20419;-71
2022/11/09 08:55:39;;;;;;;3.58;2.38;;;15.80;83.40;;;;;;5061468;28;20425;-70
2022/11/09 08:58:06;;;;;;;4.60;2.00;;;15.90;82.60;;;;;;5056722;28;20417;-71
2022/11/09 09:00:33;;;;;;;3.53;1.48;;;16.00;79.20;;;;;;5064951;28;20771;-69
2022/11/09 09:03:03;;;;;;;3.38;1.60;;;16.10;80.00;;;;;;5061456;28;20421;-68
2022/11/09 09:05:30;;;;;;;3.63;1.97;;;16.20;79.90;;;;;;5065676;28;20413;-69
2022/11/09 09:07:58;;;;;;;6.10;3.10;;;16.30;80.00;;;;;;5069884;28;20423;-68
2022/11/09 09:10:27;;;;;;;3.13;1.77;;;16.40;79.40;;;;;;5059438;28;20899;-70
2022/11/09 09:12:55;;;;;;;4.28;1.80;;;16.40;78.80;;;;;;5054001;28;20417;-70
2022/11/09 09:15:22;;;;;;;3.38;1.10;;;16.40;77.60;;;;;;5052302;28;20420;-68
2022/11/09 09:17:49;;;;;;;3.50;1.30;;;16.50;73.60;;;;;;5062033;28;20526;-68
2022/11/09 09:20:16;;;;;;;3.28;1.70;;;16.40;74.30;;;;;;5059938;28;20455;-68
2022/11/09 09:22:43;;;;;;;2.50;1.40;;;16.30;74.80;;;;;;5065858;28;20545;-69
2022/11/09 09:25:10;;;;;;;2.20;1.30;;;16.20;76.40;;;;;;5055876;28;20455;-69
2022/11/09 09:27:38;;;;;;;3.70;1.15;;;16.10;74.80;;;;;;5056769;28;20895;-68
2022/11/09 09:30:06;;;;;;;2.37;1.20;;;16.00;74.60;;;;;;5058382;28;20431;-68
2022/11/09 09:32:33;;;;;;;2.55;1.30;;;15.80;72.60;;;;;;5061691;28;20417;-68
2022/11/09 09:34:59;;;;;;;3.53;1.10;;;15.70;73.90;;;;;;5054029;28;20422;-68
2022/11/09 09:37:26;;;;;;;2.22;0.90;;;15.80;72.60;;;;;;5054922;28;20413;-70
2022/11/09 09:39:53;;;;;;;1.60;0.82;;;16.00;73.00;;;;;;5070459;28;20797;-69
2022/11/09 09:42:24;;;;;;;2.50;1.05;;;16.30;71.80;;;;;;5061499;28;20433;-68
2022/11/09 09:45:00;;;;;;;2.40;1.20;;;16.50;69.60;;;;;;5064326;28;20419;-68
2022/11/09 09:47:33;;;;;;;2.45;1.00;;;16.70;70.10;;;;;;5063145;28;20423;-69
2022/11/09 09:50:04;;;;;;;1.77;0.90;;;16.80;65.90;;;;;;5062809;28;20424;-68
2022/11/09 09:52:37;;;;;;;1.77;1.10;;;16.70;66.70;;;;;;5050976;28;20459;-68
2022/11/09 09:55:09;;;;;;;1.70;1.10;;;16.60;67.20;;;;;;5051801;28;20431;-68
2022/11/09 09:57:37;;;;;;;3.70;1.10;;;16.50;67.30;;;;;;5054509;28;20814;-68
2022/11/09 10:00:09;;;;;;;2.67;1.00;;;16.30;67.30;;;;;;5062088;28;20435;-66
2022/11/09 10:02:36;;;;;;;1.85;1.13;;;16.10;67.60;;;;;;5063637;28;20911;-69
2022/11/09 10:05:08;;;;;;;3.10;1.00;;;16.10;68.90;;;;;;5066306;28;21054;-69
2022/11/09 10:07:41;;;;;;;2.13;1.10;;;16.10;68.90;;;;;;5063024;28;20409;-69
2022/11/09 10:10:31;;;;;;;2.15;0.90;;;16.10;68.20;;;;;;5066213;28;20427;-70
2022/11/09 10:13:19;;;;;;;2.50;0.80;;;16.20;67.30;;;;;;5067868;28;20422;-69
2022/11/09 10:15:52;;;;;;;6.75;1.60;;;16.20;66.70;;;;;;5061679;28;20423;-69
2022/11/09 10:18:34;;;;;;;12.10;1.90;;;16.30;66.90;;;;;;5052255;28;20428;-68
2022/11/09 10:21:14;;;;;;;2.92;0.80;;;16.40;67.10;;;;;;5063153;28;20423;-69
2022/11/09 10:23:56;;;;;;;2.05;1.10;;;16.50;63.90;;;;;;5061083;28;20500;-70
2022/11/09 10:26:28;;;;;;;4.13;1.27;;;16.50;66.10;;;;;;5060452;28;20429;-69
2022/11/09 10:29:00;;;;;;;2.47;1.10;;;16.60;64.50;;;;;;5065292;28;20419;-67
2022/11/09 10:31:31;;;;;;;4.13;1.25;;;16.50;62.00;;;;;;5066274;28;20909;-68
2022/11/09 10:34:03;;;;;;;2.80;1.10;;;16.40;63.10;;;;;;5064548;28;20419;-68
2022/11/09 10:36:37;;;;;;;2.35;1.15;;;16.40;62.40;;;;;;5058353;28;20433;-68
2022/11/09 10:39:04;;;;;;;3.17;1.00;;;16.30;63.50;;;;;;5068252;28;20441;-68
2022/11/09 10:41:37;;;;;;;2.83;1.10;;;16.30;62.50;;;;;;5066600;28;20432;-69
2022/11/09 10:44:04;;;;;;;4.55;1.33;;;16.40;62.60;;;;;;5057439;28;20514;-68
2022/11/09 10:47:03;;;;;;;2.40;1.00;;;16.50;63.40;;;;;;5068268;28;20468;-68
2022/11/09 10:49:30;;;;;;;3.20;1.10;;;16.60;60.90;;;;;;5058141;28;20858;-68
2022/11/09 10:51:57;;;;;;;4.95;1.50;;;16.60;60.90;;;;;;5049842;28;20452;-68
2022/11/09 10:54:26;;;;;;;3.28;1.00;;;16.60;59.90;;;;;;5060261;28;20475;-67
2022/11/09 10:57:11;;;;;;;4.35;0.90;;;16.50;60.00;;;;;;5063642;28;20419;-68
2022/11/09 10:59:49;;;;;;;5.45;1.50;;;16.50;59.80;;;;;;5060514;28;20417;-66
2022/11/09 11:02:43;;;;;;;2.70;1.17;;;16.40;59.30;;;;;;5052816;28;20433;-68
2022/11/09 11:05:33;;;;;;;3.25;1.10;;;16.40;59.40;;;;;;5062754;28;20434;-67
2022/11/09 11:08:35;;;;;;;3.30;0.90;;;16.40;60.10;;;;;;5080115;28;20742;-67
2022/11/09 11:11:17;;;;;;;3.50;1.10;;;16.70;60.00;;;;;;5057776;28;20456;-69
2022/11/09 11:13:44;;;;;;;2.90;1.05;;;16.80;59.30;;;;;;5058597;28;20401;-67
2022/11/09 11:16:16;;;;;;;3.80;1.10;;;16.80;58.00;;;;;;5069746;28;20442;-68
2022/11/09 11:18:47;;;;;;;1.90;0.90;;;16.80;58.30;;;;;;5055960;28;20418;-68
2022/11/09 11:21:16;;;;;;;1.90;0.80;;;16.90;58.30;;;;;;5051256;28;20414;-68
2022/11/09 11:23:43;;;;;;;4.20;1.55;;;16.90;57.70;;;;;;5049752;28;20434;-68
2022/11/09 11:26:27;;;;;;;3.58;1.40;;;17.00;56.90;;;;;;5055995;28;22365;-67
2022/11/09 11:29:00;;;;;;;3.30;1.30;;;17.00;56.80;;;;;;5079683;28;20489;-69
2022/11/09 11:31:27;;;;;;;3.47;1.17;;;17.00;57.20;;;;;;5071884;28;20429;-66
2022/11/09 11:33:56;;;;;;;3.60;1.30;;;17.00;57.10;;;;;;5062355;28;20464;-69
2022/11/09 11:36:33;;;;;;;3.85;1.27;;;16.90;56.60;;;;;;5073063;28;20415;-68
2022/11/09 11:39:11;;;;;;;3.23;1.00;;;16.80;57.40;;;;;;5061388;28;20410;-69
2022/11/09 11:41:55;;;;;;;5.28;1.20;;;16.60;57.00;;;;;;5061447;28;20426;-68
2022/11/09 11:44:35;;;;;;;3.40;1.23;;;16.40;57.70;;;;;;5051949;28;20451;-70
2022/11/09 11:47:09;;;;;;;4.05;1.85;;;16.30;58.80;;;;;;5063397;28;20423;-69
2022/11/09 11:50:00;;;;;;;2.70;1.33;;;16.30;58.60;;;;;;5057170;28;20465;-70
2022/11/09 11:52:40;;;;;;;4.00;1.20;;;16.20;58.00;;;;;;5057345;28;20433;-66
2022/11/09 11:55:21;;;;;;;3.10;1.20;;;16.10;57.90;;;;;;5065241;28;20434;-69
2022/11/09 11:58:02;;;;;;;4.20;1.60;;;16.10;58.30;;;;;;5061507;28;20496;-69
2022/11/09 12:00:31;;;;;;;3.17;1.00;;;16.10;59.00;;;;;;5050811;28;21030;-70
2022/11/09 12:03:26;;;;;;;2.87;1.40;;;16.20;58.40;;;;;;5049187;28;20791;-68
2022/11/09 12:06:30;;;;;;;4.07;1.57;;;16.40;58.00;;;;;;5070708;28;20418;-68
2022/11/09 12:09:13;;;;;;;4.22;1.30;;;16.40;56.70;;;;;;5072130;28;20416;-68
2022/11/09 12:11:52;;;;;;;4.00;1.33;;;16.50;56.60;;;;;;5058816;28;20933;-68
2022/11/09 12:14:31;;;;;;;2.95;1.30;;;16.70;55.60;;;;;;5056013;28;20492;-68
2022/11/09 12:17:07;;;;;;;2.78;1.10;;;16.80;55.00;;;;;;5057736;28;20414;-68
2022/11/09 12:19:55;;;;;;;2.78;1.10;;;16.80;55.00;;;;;;5064942;28;20422;-67
2022/11/09 12:22:33;;;;;;;3.08;1.00;;;16.90;54.60;;;;;;5056415;28;20426;-66
2022/11/09 12:25:09;;;;;;;3.55;1.38;;;17.00;55.60;;;;;;5058171;28;20436;-67
2022/11/09 12:28:02;;;;;;;3.22;1.10;;;17.30;54.40;;;;;;5051338;28;20414;-68
2022/11/09 12:30:40;;;;;;;5.03;1.50;;;17.30;54.50;;;;;;5056735;28;20424;-68
2022/11/09 12:33:12;;;;;;;3.30;1.52;;;17.30;54.20;;;;;;5060425;28;20444;-67
2022/11/09 12:35:43;;;;;;;3.20;1.30;;;17.20;53.60;;;;;;5055594;28;20427;-67
2022/11/09 12:38:16;;;;;;;3.95;1.35;;;17.10;53.80;;;;;;5051149;28;20442;-68
2022/11/09 12:40:50;;;;;;;3.25;1.48;;;17.20;54.30;;;;;;5062122;28;20787;-68
2022/11/09 12:43:23;;;;;;;3.67;1.60;;;17.30;54.20;;;;;;5080254;22;20428;-75
2022/11/09 12:45:52;;;;;;;3.47;1.55;;;17.50;54.40;;;;;;5016681;28;20427;-76
2022/11/09 12:48:23;;;;;;;3.73;2.20;;;17.60;52.80;;;;;;5024230;28;20850;-76
2022/11/09 12:50:51;;;;;;;3.67;1.33;;;17.70;53.30;;;;;;5022474;28;20431;-77
2022/11/09 12:53:23;;;;;;;2.95;1.23;;;17.90;52.30;;;;;;5006866;28;20509;-76
2022/11/09 12:55:55;;;;;;;3.17;1.30;;;18.00;51.20;;;;;;5005516;28;20429;-76
2022/11/09 12:58:24;;;;;;;4.45;1.30;;;17.90;51.30;;;;;;5011554;28;20442;-76
2022/11/09 13:00:54;;;;;;;3.80;1.80;;;18.00;50.40;;;;;;5020790;28;20429;-76